createdAt,value
2022-09-03T00:05:14.125Z,17.4
2022-09-03T00:15:14.564Z,17.3
2022-09-03T00:25:15.590Z,17.1
2022-09-03T00:35:16.339Z,16.1
2022-09-03T00:45:16.720Z,15.6
2022-09-03T00:55:17.016Z,15.3
2022-09-03T01:15:18.283Z,15.2
2022-09-03T01:25:19.230Z,15
2022-09-03T01:35:19.443Z,14.8
2022-09-03T01:45:20.452Z,14.7
2022-09-03T01:55:21.431Z,14.7
2022-09-03T02:05:22.446Z,14.6
2022-09-03T02:15:22.929Z,14.5
2022-09-03T02:35:24.103Z,14.3
2022-09-03T02:45:24.525Z,14.2
2022-09-03T02:55:25.525Z,14.1
2022-09-03T03:05:25.820Z,13.9
2022-09-03T03:15:25.949Z,13.7
2022-09-03T03:25:26.214Z,13.6
2022-09-03T03:35:26.524Z,13.5
2022-09-03T03:45:27.568Z,13.4
2022-09-03T03:55:28.053Z,13.2
2022-09-03T04:05:31.781Z,13.2
2022-09-03T04:15:30.066Z,13
2022-09-03T04:25:30.317Z,12.9
2022-09-03T04:35:30.672Z,12.8
2022-09-03T04:45:31.260Z,12.8
2022-09-03T04:55:31.893Z,12.8
2022-09-03T05:35:35.048Z,13
2022-09-03T06:05:36.265Z,13.6
2022-09-03T06:25:37.597Z,14.4
2022-09-03T06:35:43.034Z,14.6
2022-09-03T06:45:38.664Z,14.9
2022-09-03T06:55:39.292Z,15.4
2022-09-03T07:06:01.545Z,15.8
2022-09-03T07:25:46.562Z,17
2022-09-03T07:35:47.606Z,17.4
2022-09-03T07:45:47.926Z,18.4
2022-09-03T08:15:49.519Z,20.1
2022-09-03T08:25:50.242Z,20.3
2022-09-03T08:35:50.947Z,20.7
2022-09-03T09:25:54.089Z,23
2022-09-03T09:35:54.978Z,23.1
2022-09-03T09:45:55.658Z,23.3
2022-09-03T09:55:56.445Z,23.8
2022-09-03T10:05:56.610Z,23.8
2022-09-03T10:15:57.670Z,24.1
2022-09-03T10:25:58.304Z,24.2
2022-09-03T10:35:58.846Z,24.4
2022-09-03T10:45:59.707Z,24.9
2022-09-03T11:06:01.106Z,25.5
2022-09-03T11:16:01.293Z,26
2022-09-03T11:26:01.905Z,25.9
2022-09-03T11:36:02.796Z,26.3
2022-09-03T11:46:03.623Z,26.3
2022-09-03T11:56:03.859Z,26.4
2022-09-03T12:06:03.950Z,26.3
2022-09-03T12:16:04.494Z,26.4
2022-09-03T12:26:04.627Z,26.5
2022-09-03T12:36:05.645Z,26.2
2022-09-03T12:46:14.548Z,26.3
2022-09-03T12:56:07.110Z,26.2
2022-09-03T13:06:07.640Z,27
2022-09-03T13:16:08.643Z,27.2
2022-09-03T13:36:09.189Z,26.4
2022-09-03T13:46:09.547Z,26.5
2022-09-03T13:56:09.997Z,26.3
2022-09-03T14:06:10.497Z,26.1
2022-09-03T14:16:11.362Z,25.9
2022-09-03T14:26:11.860Z,25.9
2022-09-03T14:36:12.367Z,26.3
2022-09-03T14:46:12.900Z,26.1
2022-09-03T15:06:13.413Z,26.1
2022-09-03T15:16:14.347Z,26.1
2022-09-03T15:26:14.638Z,25.7
2022-09-03T15:36:14.748Z,25.7
2022-09-03T15:46:15.599Z,25.6
2022-09-03T15:56:16.322Z,25.5
2022-09-03T16:06:16.417Z,25.7
2022-09-03T16:16:16.612Z,25.6
2022-09-03T16:26:17.528Z,25.4
2022-09-03T16:36:17.715Z,25.3
2022-09-03T16:46:18.062Z,25.2
2022-09-03T16:56:22.665Z,25.3
2022-09-03T17:06:19.733Z,25.3
2022-09-03T17:16:23.678Z,25.3
2022-09-03T17:26:20.853Z,25.1
2022-09-03T17:36:21.565Z,24.9
2022-09-03T17:46:21.781Z,24.5
2022-09-03T17:56:22.314Z,24.2
2022-09-03T18:06:22.608Z,23.9
2022-09-03T18:16:23.533Z,23.7
2022-09-03T18:26:23.686Z,23.5
2022-09-03T18:36:24.691Z,23.2
2022-09-03T18:47:16.339Z,23
2022-09-03T18:56:26.200Z,22.8
2022-09-03T19:06:26.414Z,22.6
2022-09-03T19:16:27.286Z,22.5
2022-09-03T19:26:28.144Z,22.3
2022-09-03T19:36:29.064Z,22.2
2022-09-03T19:46:29.855Z,22.1
2022-09-03T19:56:30.708Z,21.9
2022-09-03T20:06:31.157Z,21.7
2022-09-03T20:16:31.505Z,21.4
2022-09-03T20:26:32.130Z,21.2
2022-09-03T20:36:32.509Z,20.9
2022-09-03T20:46:33.417Z,20.7
2022-09-03T20:56:33.499Z,20.3
2022-09-03T21:06:33.912Z,20.2
2022-09-03T21:16:34.519Z,19.9
2022-09-03T21:26:35.200Z,19.8
2022-09-03T21:36:35.726Z,19.6
2022-09-03T21:46:36.214Z,19.3
2022-09-03T21:56:36.604Z,19.3
2022-09-03T22:06:37.569Z,19
2022-09-03T22:16:38.020Z,18.5
2022-09-03T22:26:38.499Z,18
2022-09-03T22:36:38.902Z,17.9
2022-09-03T22:46:39.134Z,17.8
2022-09-03T23:06:39.641Z,17.2
2022-09-03T23:16:40.313Z,17.1
2022-09-03T23:37:01.741Z,16.5
2022-09-03T23:46:42.585Z,16.4
2022-09-03T23:56:43.303Z,16.3
